Amonate, Virginia
Current Conditions -  °F | °C
As of 8:35 PM on Saturday 20 Dec 2014 (Local Time) from KJFZ Reporting Station
Overcast Overcast  
Wind Chill: 34°   Ceiling: 1500
Heat Index: 34°   Visibility: 10mi
Dew Point: 31°   Wind: 0mph
Humidity: 89%   Direction: NA
Pressure: 30.19"   Gusts: NA
Location:  37.19°N, 81.64°W
Report Text: KJFZ 210135Z AUTO 00000KT 10SM OVC015 01/00 A3019 RMK AO2 T00111005
Loading
Personal Weather Stations






























Interactive Weather Map New forecast layout! Learn more

10-Day Weather Forecast

Advertisements
Track Severe Weather on mobile